Forside
METAR-TAF:

METAR-TAF

Lufthavne :

Kostanay, Kasakhstan

Breddekreds: 53-12-23N, længdekreds: 063-33-03E, højde: 182 m

Aktuelle vejr

Denne rapport blev lavet for 35 minutter siden, kl. 06:00 UTC
Vind 14 kt fra syd
Temperatur -4°C
Fugtighed 86%
Tryk 1019 hPa
Sigt 10 km eller mere
ingen skyer under 1500m og ingen cumulonimbus

METAR: UAUU 290600Z 17007MPS CAVOK M04/M06 Q1019 R15/810150 NOSIG RMK QFE748/0998

Tid: 12:35 (06:35 UTC)

Vejrudsigter

Denne rapport blev lavet for 1 time og 35 minutter siden, kl. 05:00 UTC
Foreløbig gælder fra 29 på 06 UTC til 29 på 15 UTC
Vind 14 kt fra syd
Sigt 10 km eller mere
Brudte skyer i en højde af 3000 ft
Midlertidig
fra 29 på 06 UTC til 29 på 12 UTC
Vind 25 kt fra syd
Midlertidig
fra 29 på 12 UTC til 29 på 15 UTC
Sigt: 3100 m
Brudte skyer i en højde af 1100 ft
dis

TAF: UAUU 290500Z 2906/2915 17007MPS 9999 BKN030 TEMPO 2906/2912 18013MPS TEMPO 2912/2915 3100 BR BKN011

Vejrobservationer og prognoser fra mere end 4000 lufthavne (METAR og TAF).

De gule og røde prikker repræsenterer de meteorologiske stationer.

Flyt musen over at se navnet på stationen.

Så klik over at se vejr observationer og prognoser.

At skifte det kort: Klik på de grønne knapper med et sort kors for at zoome ind; på den grønne knap med en bindestreg for at zoome ud; eller på de grønne pile for tilstødende kort.


METAR-TAF: